sensor_id;sensor_type;location;lat;lon;timestamp;P1;durP1;ratioP1;P2;durP2;ratioP2
30299;SDS011;17110;52.602;12.998;2023-04-09T00:02:24;35.05;;;31.45;;
30299;SDS011;17110;52.602;12.998;2023-04-09T00:04:50;39.60;;;35.40;;
30299;SDS011;17110;52.602;12.998;2023-04-09T00:07:16;35.00;;;31.30;;
30299;SDS011;17110;52.602;12.998;2023-04-09T00:09:41;34.60;;;31.00;;
30299;SDS011;17110;52.602;12.998;2023-04-09T00:12:07;34.72;;;30.92;;
30299;SDS011;17110;52.602;12.998;2023-04-09T00:14:33;33.87;;;30.40;;
30299;SDS011;17110;52.602;12.998;2023-04-09T00:16:58;33.13;;;29.37;;
30299;SDS011;17110;52.602;12.998;2023-04-09T00:19:24;32.90;;;29.38;;
30299;SDS011;17110;52.602;12.998;2023-04-09T00:21:50;32.75;;;28.50;;
30299;SDS011;17110;52.602;12.998;2023-04-09T00:24:16;34.50;;;30.57;;
30299;SDS011;17110;52.602;12.998;2023-04-09T00:26:42;34.23;;;30.10;;
30299;SDS011;17110;52.602;12.998;2023-04-09T00:29:07;38.42;;;33.92;;
30299;SDS011;17110;52.602;12.998;2023-04-09T00:31:33;37.58;;;33.47;;
30299;SDS011;17110;52.602;12.998;2023-04-09T00:33:59;35.37;;;31.27;;
30299;SDS011;17110;52.602;12.998;2023-04-09T00:36:25;35.85;;;31.67;;
30299;SDS011;17110;52.602;12.998;2023-04-09T00:38:50;37.05;;;32.50;;
30299;SDS011;17110;52.602;12.998;2023-04-09T00:41:17;34.85;;;31.08;;
30299;SDS011;17110;52.602;12.998;2023-04-09T00:43:43;33.55;;;29.80;;
30299;SDS011;17110;52.602;12.998;2023-04-09T00:46:09;36.30;;;32.40;;
30299;SDS011;17110;52.602;12.998;2023-04-09T00:48:35;33.67;;;30.10;;
30299;SDS011;17110;52.602;12.998;2023-04-09T00:51:01;35.17;;;31.03;;
30299;SDS011;17110;52.602;12.998;2023-04-09T00:53:27;34.00;;;30.40;;
30299;SDS011;17110;52.602;12.998;2023-04-09T00:55:53;35.05;;;31.42;;
30299;SDS011;17110;52.602;12.998;2023-04-09T00:58:19;35.47;;;31.52;;
30299;SDS011;17110;52.602;12.998;2023-04-09T01:00:45;34.83;;;31.17;;
30299;SDS011;17110;52.602;12.998;2023-04-09T01:03:10;33.93;;;30.33;;
30299;SDS011;17110;52.602;12.998;2023-04-09T01:05:43;35.28;;;31.42;;
30299;SDS011;17110;52.602;12.998;2023-04-09T01:11:22;37.97;;;33.45;;
30299;SDS011;17110;52.602;12.998;2023-04-09T01:14:11;35.88;;;31.75;;
30299;SDS011;17110;52.602;12.998;2023-04-09T01:16:46;38.45;;;33.70;;
30299;SDS011;17110;52.602;12.998;2023-04-09T01:30:49;35.13;;;31.23;;
30299;SDS011;17110;52.602;12.998;2023-04-09T01:33:25;34.20;;;30.60;;
30299;SDS011;17110;52.602;12.998;2023-04-09T01:35:53;33.45;;;29.63;;
30299;SDS011;17110;52.602;12.998;2023-04-09T01:38:20;35.08;;;31.35;;
30299;SDS011;17110;52.602;12.998;2023-04-09T01:40:47;37.47;;;33.38;;
30299;SDS011;17110;52.602;12.998;2023-04-09T01:43:14;36.47;;;32.60;;
30299;SDS011;17110;52.602;12.998;2023-04-09T01:45:42;37.50;;;33.22;;
30299;SDS011;17110;52.602;12.998;2023-04-09T01:48:09;36.88;;;32.85;;
30299;SDS011;17110;52.602;12.998;2023-04-09T01:50:36;37.50;;;33.47;;
30299;SDS011;17110;52.602;12.998;2023-04-09T01:53:02;40.30;;;34.47;;
30299;SDS011;17110;52.602;12.998;2023-04-09T01:55:28;46.72;;;38.85;;
30299;SDS011;17110;52.602;12.998;2023-04-09T01:57:53;38.78;;;34.33;;
30299;SDS011;17110;52.602;12.998;2023-04-09T02:00:19;37.60;;;33.20;;
30299;SDS011;17110;52.602;12.998;2023-04-09T02:02:45;40.95;;;36.25;;
30299;SDS011;17110;52.602;12.998;2023-04-09T02:05:19;39.95;;;35.47;;
30299;SDS011;17110;52.602;12.998;2023-04-09T02:07:48;39.88;;;35.42;;
30299;SDS011;17110;52.602;12.998;2023-04-09T02:10:21;42.95;;;36.72;;
30299;SDS011;17110;52.602;12.998;2023-04-09T02:12:50;39.20;;;34.87;;
30299;SDS011;17110;52.602;12.998;2023-04-09T02:15:18;41.50;;;35.20;;
30299;SDS011;17110;52.602;12.998;2023-04-09T02:17:45;39.65;;;34.83;;
30299;SDS011;17110;52.602;12.998;2023-04-09T02:20:14;43.80;;;36.25;;
30299;SDS011;17110;52.602;12.998;2023-04-09T02:22:41;46.08;;;39.25;;
30299;SDS011;17110;52.602;12.998;2023-04-09T02:25:07;49.00;;;41.70;;
30299;SDS011;17110;52.602;12.998;2023-04-09T02:27:33;54.92;;;42.88;;
30299;SDS011;17110;52.602;12.998;2023-04-09T02:29:58;57.40;;;45.63;;
30299;SDS011;17110;52.602;12.998;2023-04-09T02:32:24;52.17;;;44.57;;
30299;SDS011;17110;52.602;12.998;2023-04-09T02:34:50;53.53;;;45.40;;
30299;SDS011;17110;52.602;12.998;2023-04-09T02:37:16;52.70;;;43.73;;
30299;SDS011;17110;52.602;12.998;2023-04-09T02:39:42;56.28;;;45.25;;
30299;SDS011;17110;52.602;12.998;2023-04-09T02:42:08;59.83;;;48.17;;
30299;SDS011;17110;52.602;12.998;2023-04-09T02:44:33;54.30;;;44.23;;
30299;SDS011;17110;52.602;12.998;2023-04-09T02:46:59;51.58;;;42.25;;
30299;SDS011;17110;52.602;12.998;2023-04-09T02:49:25;50.00;;;41.40;;
30299;SDS011;17110;52.602;12.998;2023-04-09T02:51:53;46.70;;;40.05;;
30299;SDS011;17110;52.602;12.998;2023-04-09T02:54:19;43.88;;;37.65;;
30299;SDS011;17110;52.602;12.998;2023-04-09T02:56:45;44.03;;;36.85;;
30299;SDS011;17110;52.602;12.998;2023-04-09T02:59:11;42.53;;;34.50;;
30299;SDS011;17110;52.602;12.998;2023-04-09T03:01:37;41.20;;;35.25;;
30299;SDS011;17110;52.602;12.998;2023-04-09T03:04:03;43.97;;;36.25;;
30299;SDS011;17110;52.602;12.998;2023-04-09T03:06:28;40.47;;;35.28;;
30299;SDS011;17110;52.602;12.998;2023-04-09T03:08:54;44.35;;;37.10;;
30299;SDS011;17110;52.602;12.998;2023-04-09T03:11:20;41.17;;;35.83;;
30299;SDS011;17110;52.602;12.998;2023-04-09T03:13:45;41.40;;;35.37;;
30299;SDS011;17110;52.602;12.998;2023-04-09T03:16:14;41.83;;;36.33;;
30299;SDS011;17110;52.602;12.998;2023-04-09T03:18:40;43.63;;;36.77;;
30299;SDS011;17110;52.602;12.998;2023-04-09T03:21:06;50.03;;;39.87;;
30299;SDS011;17110;52.602;12.998;2023-04-09T03:23:32;62.45;;;43.92;;
30299;SDS011;17110;52.602;12.998;2023-04-09T03:26:02;58.38;;;41.45;;
30299;SDS011;17110;52.602;12.998;2023-04-09T03:28:29;53.80;;;41.17;;
30299;SDS011;17110;52.602;12.998;2023-04-09T03:30:55;88.18;;;45.90;;
30299;SDS011;17110;52.602;12.998;2023-04-09T03:33:21;80.88;;;43.40;;
30299;SDS011;17110;52.602;12.998;2023-04-09T03:35:47;65.68;;;44.58;;
30299;SDS011;17110;52.602;12.998;2023-04-09T03:38:12;54.93;;;42.17;;
30299;SDS011;17110;52.602;12.998;2023-04-09T03:40:38;67.80;;;43.47;;
30299;SDS011;17110;52.602;12.998;2023-04-09T03:43:06;52.75;;;42.00;;
30299;SDS011;17110;52.602;12.998;2023-04-09T03:45:31;55.72;;;42.38;;
30299;SDS011;17110;52.602;12.998;2023-04-09T03:47:57;65.40;;;43.40;;
30299;SDS011;17110;52.602;12.998;2023-04-09T03:50:22;70.83;;;45.00;;
30299;SDS011;17110;52.602;12.998;2023-04-09T03:52:48;72.13;;;46.35;;
30299;SDS011;17110;52.602;12.998;2023-04-09T03:55:13;62.78;;;44.85;;
30299;SDS011;17110;52.602;12.998;2023-04-09T03:57:39;67.90;;;45.37;;
30299;SDS011;17110;52.602;12.998;2023-04-09T04:00:05;52.20;;;42.17;;
30299;SDS011;17110;52.602;12.998;2023-04-09T04:02:31;61.10;;;43.65;;
30299;SDS011;17110;52.602;12.998;2023-04-09T04:04:57;96.07;;;48.70;;
30299;SDS011;17110;52.602;12.998;2023-04-09T04:07:23;66.37;;;46.10;;
30299;SDS011;17110;52.602;12.998;2023-04-09T04:09:49;121.00;;;51.73;;
30299;SDS011;17110;52.602;12.998;2023-04-09T04:12:15;94.67;;;46.77;;
30299;SDS011;17110;52.602;12.998;2023-04-09T04:14:41;56.93;;;42.20;;
30299;SDS011;17110;52.602;12.998;2023-04-09T04:17:06;61.53;;;43.15;;
30299;SDS011;17110;52.602;12.998;2023-04-09T04:19:32;70.55;;;43.72;;
30299;SDS011;17110;52.602;12.998;2023-04-09T04:21:57;61.45;;;42.50;;
30299;SDS011;17110;52.602;12.998;2023-04-09T04:24:23;83.73;;;44.60;;
30299;SDS011;17110;52.602;12.998;2023-04-09T04:26:49;43.90;;;36.20;;
30299;SDS011;17110;52.602;12.998;2023-04-09T04:29:14;52.15;;;37.65;;
30299;SDS011;17110;52.602;12.998;2023-04-09T04:31:40;55.75;;;37.63;;
30299;SDS011;17110;52.602;12.998;2023-04-09T04:34:06;43.77;;;34.63;;
30299;SDS011;17110;52.602;12.998;2023-04-09T04:36:31;53.47;;;36.57;;
30299;SDS011;17110;52.602;12.998;2023-04-09T04:38:57;55.78;;;37.13;;
30299;SDS011;17110;52.602;12.998;2023-04-09T04:41:22;54.43;;;38.57;;
30299;SDS011;17110;52.602;12.998;2023-04-09T04:43:48;55.40;;;40.23;;
30299;SDS011;17110;52.602;12.998;2023-04-09T04:46:13;58.03;;;41.30;;
30299;SDS011;17110;52.602;12.998;2023-04-09T04:48:40;123.18;;;46.72;;
30299;SDS011;17110;52.602;12.998;2023-04-09T04:51:05;115.65;;;45.90;;
30299;SDS011;17110;52.602;12.998;2023-04-09T04:53:31;57.37;;;39.53;;
30299;SDS011;17110;52.602;12.998;2023-04-09T04:55:56;56.83;;;37.90;;
30299;SDS011;17110;52.602;12.998;2023-04-09T04:58:22;75.83;;;43.70;;
30299;SDS011;17110;52.602;12.998;2023-04-09T05:00:48;61.15;;;40.13;;
30299;SDS011;17110;52.602;12.998;2023-04-09T05:03:14;56.45;;;38.28;;
30299;SDS011;17110;52.602;12.998;2023-04-09T05:05:40;57.50;;;38.23;;
30299;SDS011;17110;52.602;12.998;2023-04-09T05:08:05;104.37;;;44.00;;
30299;SDS011;17110;52.602;12.998;2023-04-09T05:10:31;117.45;;;44.53;;
30299;SDS011;17110;52.602;12.998;2023-04-09T05:12:56;111.00;;;44.27;;
30299;SDS011;17110;52.602;12.998;2023-04-09T05:15:22;69.10;;;40.50;;
30299;SDS011;17110;52.602;12.998;2023-04-09T05:17:47;54.17;;;37.78;;
30299;SDS011;17110;52.602;12.998;2023-04-09T05:20:14;70.53;;;41.92;;
30299;SDS011;17110;52.602;12.998;2023-04-09T05:22:39;89.15;;;58.28;;
30299;SDS011;17110;52.602;12.998;2023-04-09T05:25:05;58.50;;;40.45;;
30299;SDS011;17110;52.602;12.998;2023-04-09T05:27:31;76.93;;;41.92;;
30299;SDS011;17110;52.602;12.998;2023-04-09T05:29:57;68.53;;;42.45;;
30299;SDS011;17110;52.602;12.998;2023-04-09T05:32:22;52.33;;;37.70;;
30299;SDS011;17110;52.602;12.998;2023-04-09T05:34:48;57.67;;;39.40;;
30299;SDS011;17110;52.602;12.998;2023-04-09T05:37:14;62.27;;;41.27;;
30299;SDS011;17110;52.602;12.998;2023-04-09T05:39:40;67.30;;;42.07;;
30299;SDS011;17110;52.602;12.998;2023-04-09T05:42:05;75.05;;;43.50;;
30299;SDS011;17110;52.602;12.998;2023-04-09T05:44:31;58.25;;;38.20;;
30299;SDS011;17110;52.602;12.998;2023-04-09T05:46:56;71.47;;;42.23;;
30299;SDS011;17110;52.602;12.998;2023-04-09T05:49:22;92.97;;;44.33;;
30299;SDS011;17110;52.602;12.998;2023-04-09T05:51:48;89.10;;;43.27;;
30299;SDS011;17110;52.602;12.998;2023-04-09T05:54:15;55.75;;;38.80;;
30299;SDS011;17110;52.602;12.998;2023-04-09T05:56:43;168.98;;;48.72;;
30299;SDS011;17110;52.602;12.998;2023-04-09T05:59:09;50.63;;;36.72;;
30299;SDS011;17110;52.602;12.998;2023-04-09T06:01:35;62.88;;;39.42;;
30299;SDS011;17110;52.602;12.998;2023-04-09T06:04:01;54.93;;;38.10;;
30299;SDS011;17110;52.602;12.998;2023-04-09T06:06:26;64.90;;;37.17;;
30299;SDS011;17110;52.602;12.998;2023-04-09T06:08:52;48.85;;;35.95;;
30299;SDS011;17110;52.602;12.998;2023-04-09T06:11:18;47.88;;;34.30;;
30299;SDS011;17110;52.602;12.998;2023-04-09T06:13:43;45.27;;;35.10;;
30299;SDS011;17110;52.602;12.998;2023-04-09T06:16:09;40.47;;;32.63;;
30299;SDS011;17110;52.602;12.998;2023-04-09T06:18:35;38.65;;;32.33;;
30299;SDS011;17110;52.602;12.998;2023-04-09T06:21:05;41.53;;;33.85;;
30299;SDS011;17110;52.602;12.998;2023-04-09T06:23:32;40.75;;;33.25;;
30299;SDS011;17110;52.602;12.998;2023-04-09T06:25:59;40.28;;;32.33;;
30299;SDS011;17110;52.602;12.998;2023-04-09T06:28:25;48.87;;;36.13;;
30299;SDS011;17110;52.602;12.998;2023-04-09T06:30:52;53.15;;;39.83;;
30299;SDS011;17110;52.602;12.998;2023-04-09T06:33:19;57.85;;;41.30;;
30299;SDS011;17110;52.602;12.998;2023-04-09T06:35:45;49.25;;;38.28;;
30299;SDS011;17110;52.602;12.998;2023-04-09T06:38:11;47.20;;;36.45;;
30299;SDS011;17110;52.602;12.998;2023-04-09T06:40:37;52.53;;;40.23;;
30299;SDS011;17110;52.602;12.998;2023-04-09T06:43:03;53.90;;;41.35;;
30299;SDS011;17110;52.602;12.998;2023-04-09T06:45:31;60.40;;;43.50;;
30299;SDS011;17110;52.602;12.998;2023-04-09T06:47:58;56.35;;;43.42;;
30299;SDS011;17110;52.602;12.998;2023-04-09T06:50:24;64.82;;;43.67;;
30299;SDS011;17110;52.602;12.998;2023-04-09T06:52:50;59.28;;;42.63;;
30299;SDS011;17110;52.602;12.998;2023-04-09T06:55:16;56.15;;;41.72;;
30299;SDS011;17110;52.602;12.998;2023-04-09T06:57:42;64.43;;;45.50;;
30299;SDS011;17110;52.602;12.998;2023-04-09T07:00:08;62.87;;;45.27;;
30299;SDS011;17110;52.602;12.998;2023-04-09T07:02:34;56.50;;;41.85;;
30299;SDS011;17110;52.602;12.998;2023-04-09T07:05:00;57.78;;;43.03;;
30299;SDS011;17110;52.602;12.998;2023-04-09T07:07:27;52.80;;;40.42;;
30299;SDS011;17110;52.602;12.998;2023-04-09T07:09:53;49.90;;;38.88;;
30299;SDS011;17110;52.602;12.998;2023-04-09T07:12:28;51.45;;;39.80;;
30299;SDS011;17110;52.602;12.998;2023-04-09T07:14:58;50.58;;;39.72;;
30299;SDS011;17110;52.602;12.998;2023-04-09T07:17:29;51.00;;;40.27;;
30299;SDS011;17110;52.602;12.998;2023-04-09T07:19:55;52.63;;;40.33;;
30299;SDS011;17110;52.602;12.998;2023-04-09T07:22:21;53.63;;;41.30;;
30299;SDS011;17110;52.602;12.998;2023-04-09T07:24:48;47.05;;;37.90;;
30299;SDS011;17110;52.602;12.998;2023-04-09T07:27:21;45.85;;;37.55;;
30299;SDS011;17110;52.602;12.998;2023-04-09T07:29:47;47.97;;;38.30;;
30299;SDS011;17110;52.602;12.998;2023-04-09T07:32:13;49.63;;;38.50;;
30299;SDS011;17110;52.602;12.998;2023-04-09T07:34:40;48.10;;;38.63;;
30299;SDS011;17110;52.602;12.998;2023-04-09T07:37:06;54.10;;;40.50;;
30299;SDS011;17110;52.602;12.998;2023-04-09T07:39:31;56.00;;;42.63;;
30299;SDS011;17110;52.602;12.998;2023-04-09T07:41:57;53.67;;;40.85;;
30299;SDS011;17110;52.602;12.998;2023-04-09T07:44:26;54.78;;;41.88;;
30299;SDS011;17110;52.602;12.998;2023-04-09T07:46:52;58.58;;;44.05;;
30299;SDS011;17110;52.602;12.998;2023-04-09T07:49:17;52.27;;;40.80;;
30299;SDS011;17110;52.602;12.998;2023-04-09T07:51:43;51.53;;;40.93;;
30299;SDS011;17110;52.602;12.998;2023-04-09T07:54:08;51.20;;;41.17;;
30299;SDS011;17110;52.602;12.998;2023-04-09T07:56:34;52.97;;;42.00;;
30299;SDS011;17110;52.602;12.998;2023-04-09T07:59:00;57.78;;;43.25;;
30299;SDS011;17110;52.602;12.998;2023-04-09T08:01:27;53.85;;;42.20;;
30299;SDS011;17110;52.602;12.998;2023-04-09T08:03:53;56.13;;;43.70;;
30299;SDS011;17110;52.602;12.998;2023-04-09T08:06:18;57.72;;;44.25;;
30299;SDS011;17110;52.602;12.998;2023-04-09T08:08:44;61.53;;;45.73;;
30299;SDS011;17110;52.602;12.998;2023-04-09T08:11:10;57.08;;;42.90;;
30299;SDS011;17110;52.602;12.998;2023-04-09T08:13:36;52.75;;;40.58;;
30299;SDS011;17110;52.602;12.998;2023-04-09T08:16:04;52.97;;;41.67;;
30299;SDS011;17110;52.602;12.998;2023-04-09T08:18:30;54.15;;;42.83;;
30299;SDS011;17110;52.602;12.998;2023-04-09T08:20:56;55.22;;;43.17;;
30299;SDS011;17110;52.602;12.998;2023-04-09T08:23:22;55.38;;;43.00;;
30299;SDS011;17110;52.602;12.998;2023-04-09T08:25:47;51.73;;;42.00;;
30299;SDS011;17110;52.602;12.998;2023-04-09T08:28:13;51.38;;;41.17;;
30299;SDS011;17110;52.602;12.998;2023-04-09T08:30:38;50.35;;;40.40;;
30299;SDS011;17110;52.602;12.998;2023-04-09T08:33:04;50.97;;;40.27;;
30299;SDS011;17110;52.602;12.998;2023-04-09T08:35:30;48.35;;;39.85;;
30299;SDS011;17110;52.602;12.998;2023-04-09T08:37:55;49.25;;;40.45;;
30299;SDS011;17110;52.602;12.998;2023-04-09T08:40:22;50.00;;;40.40;;
30299;SDS011;17110;52.602;12.998;2023-04-09T08:42:50;46.50;;;38.22;;
30299;SDS011;17110;52.602;12.998;2023-04-09T08:45:20;47.55;;;38.20;;
30299;SDS011;17110;52.602;12.998;2023-04-09T08:47:47;44.78;;;36.58;;
30299;SDS011;17110;52.602;12.998;2023-04-09T08:50:14;49.00;;;38.30;;
30299;SDS011;17110;52.602;12.998;2023-04-09T08:52:40;48.47;;;37.50;;
30299;SDS011;17110;52.602;12.998;2023-04-09T08:55:09;46.45;;;37.10;;
30299;SDS011;17110;52.602;12.998;2023-04-09T08:57:39;45.45;;;37.53;;
30299;SDS011;17110;52.602;12.998;2023-04-09T09:00:05;47.03;;;38.28;;
30299;SDS011;17110;52.602;12.998;2023-04-09T09:02:32;47.17;;;38.67;;
30299;SDS011;17110;52.602;12.998;2023-04-09T09:04:58;46.23;;;36.93;;
30299;SDS011;17110;52.602;12.998;2023-04-09T09:07:25;47.42;;;37.58;;
30299;SDS011;17110;52.602;12.998;2023-04-09T09:09:54;48.58;;;38.55;;
30299;SDS011;17110;52.602;12.998;2023-04-09T09:12:41;47.90;;;39.45;;
30299;SDS011;17110;52.602;12.998;2023-04-09T09:15:26;48.92;;;39.85;;
30299;SDS011;17110;52.602;12.998;2023-04-09T09:17:56;47.53;;;37.83;;
30299;SDS011;17110;52.602;12.998;2023-04-09T09:20:24;46.58;;;37.75;;
30299;SDS011;17110;52.602;12.998;2023-04-09T09:22:51;44.67;;;37.83;;
30299;SDS011;17110;52.602;12.998;2023-04-09T09:25:18;45.70;;;37.30;;
30299;SDS011;17110;52.602;12.998;2023-04-09T09:27:50;48.00;;;39.00;;
30299;SDS011;17110;52.602;12.998;2023-04-09T09:30:24;52.27;;;42.77;;
30299;SDS011;17110;52.602;12.998;2023-04-09T09:32:52;69.22;;;58.38;;
30299;SDS011;17110;52.602;12.998;2023-04-09T09:35:18;47.80;;;38.72;;
30299;SDS011;17110;52.602;12.998;2023-04-09T09:37:44;45.50;;;37.17;;
30299;SDS011;17110;52.602;12.998;2023-04-09T09:40:10;44.10;;;35.05;;
30299;SDS011;17110;52.602;12.998;2023-04-09T09:42:56;43.27;;;35.43;;
30299;SDS011;17110;52.602;12.998;2023-04-09T09:45:22;44.58;;;36.50;;
30299;SDS011;17110;52.602;12.998;2023-04-09T09:47:49;43.53;;;36.10;;
30299;SDS011;17110;52.602;12.998;2023-04-09T09:50:16;47.13;;;37.45;;
30299;SDS011;17110;52.602;12.998;2023-04-09T09:52:42;49.27;;;38.77;;
30299;SDS011;17110;52.602;12.998;2023-04-09T09:55:14;49.38;;;38.67;;
30299;SDS011;17110;52.602;12.998;2023-04-09T09:57:43;51.13;;;40.17;;
30299;SDS011;17110;52.602;12.998;2023-04-09T10:00:11;43.70;;;36.75;;
30299;SDS011;17110;52.602;12.998;2023-04-09T10:02:51;47.40;;;38.78;;
30299;SDS011;17110;52.602;12.998;2023-04-09T10:05:21;50.13;;;40.03;;
30299;SDS011;17110;52.602;12.998;2023-04-09T10:07:50;50.55;;;38.25;;
30299;SDS011;17110;52.602;12.998;2023-04-09T10:10:24;46.15;;;38.20;;
30299;SDS011;17110;52.602;12.998;2023-04-09T10:12:51;44.55;;;36.78;;
30299;SDS011;17110;52.602;12.998;2023-04-09T10:15:17;44.40;;;36.67;;
30299;SDS011;17110;52.602;12.998;2023-04-09T10:17:44;43.80;;;35.47;;
30299;SDS011;17110;52.602;12.998;2023-04-09T10:20:11;45.95;;;35.58;;
30299;SDS011;17110;52.602;12.998;2023-04-09T10:22:41;44.13;;;35.50;;
30299;SDS011;17110;52.602;12.998;2023-04-09T10:25:09;43.10;;;35.38;;
30299;SDS011;17110;52.602;12.998;2023-04-09T10:27:35;41.63;;;35.40;;
30299;SDS011;17110;52.602;12.998;2023-04-09T10:30:01;45.25;;;35.72;;
30299;SDS011;17110;52.602;12.998;2023-04-09T10:32:26;41.03;;;33.60;;
30299;SDS011;17110;52.602;12.998;2023-04-09T10:35:00;41.85;;;33.75;;
30299;SDS011;17110;52.602;12.998;2023-04-09T10:37:28;42.70;;;34.85;;
30299;SDS011;17110;52.602;12.998;2023-04-09T10:39:54;41.40;;;34.15;;
30299;SDS011;17110;52.602;12.998;2023-04-09T10:42:28;41.90;;;35.08;;
30299;SDS011;17110;52.602;12.998;2023-04-09T10:45:12;44.63;;;36.28;;
30299;SDS011;17110;52.602;12.998;2023-04-09T10:47:41;45.15;;;35.65;;
30299;SDS011;17110;52.602;12.998;2023-04-09T10:50:14;44.70;;;36.50;;
30299;SDS011;17110;52.602;12.998;2023-04-09T10:52:41;46.72;;;36.40;;
30299;SDS011;17110;52.602;12.998;2023-04-09T10:55:08;44.00;;;34.97;;
30299;SDS011;17110;52.602;12.998;2023-04-09T10:57:53;42.58;;;34.65;;
30299;SDS011;17110;52.602;12.998;2023-04-09T11:00:19;43.70;;;35.30;;
30299;SDS011;17110;52.602;12.998;2023-04-09T11:02:50;41.30;;;33.50;;
30299;SDS011;17110;52.602;12.998;2023-04-09T11:08:09;41.22;;;33.20;;
30299;SDS011;17110;52.602;12.998;2023-04-09T11:10:36;44.45;;;33.20;;
30299;SDS011;17110;52.602;12.998;2023-04-09T11:13:03;47.05;;;35.00;;
30299;SDS011;17110;52.602;12.998;2023-04-09T11:15:30;43.25;;;33.60;;
30299;SDS011;17110;52.602;12.998;2023-04-09T11:17:56;44.25;;;35.40;;
30299;SDS011;17110;52.602;12.998;2023-04-09T11:20:23;40.58;;;31.95;;
30299;SDS011;17110;52.602;12.998;2023-04-09T11:22:50;40.47;;;32.13;;
30299;SDS011;17110;52.602;12.998;2023-04-09T11:25:27;40.85;;;32.10;;
30299;SDS011;17110;52.602;12.998;2023-04-09T11:27:54;41.35;;;32.58;;
30299;SDS011;17110;52.602;12.998;2023-04-09T11:30:21;36.90;;;30.58;;
30299;SDS011;17110;52.602;12.998;2023-04-09T11:32:47;39.78;;;31.95;;
30299;SDS011;17110;52.602;12.998;2023-04-09T11:35:14;38.17;;;30.92;;
30299;SDS011;17110;52.602;12.998;2023-04-09T11:37:41;39.90;;;31.80;;
30299;SDS011;17110;52.602;12.998;2023-04-09T11:40:17;38.88;;;31.42;;
30299;SDS011;17110;52.602;12.998;2023-04-09T11:42:43;38.60;;;30.55;;
30299;SDS011;17110;52.602;12.998;2023-04-09T11:45:10;40.53;;;31.98;;
30299;SDS011;17110;52.602;12.998;2023-04-09T11:47:37;38.90;;;32.05;;
30299;SDS011;17110;52.602;12.998;2023-04-09T11:50:06;41.85;;;33.13;;
30299;SDS011;17110;52.602;12.998;2023-04-09T11:52:32;39.58;;;30.85;;
30299;SDS011;17110;52.602;12.998;2023-04-09T11:55:00;38.60;;;31.52;;
30299;SDS011;17110;52.602;12.998;2023-04-09T12:02:46;36.97;;;30.90;;
30299;SDS011;17110;52.602;12.998;2023-04-09T12:05:19;39.10;;;30.65;;
30299;SDS011;17110;52.602;12.998;2023-04-09T12:07:45;40.37;;;32.07;;
30299;SDS011;17110;52.602;12.998;2023-04-09T12:10:11;37.83;;;30.57;;
30299;SDS011;17110;52.602;12.998;2023-04-09T12:12:44;36.25;;;29.92;;
30299;SDS011;17110;52.602;12.998;2023-04-09T12:17:36;37.55;;;30.50;;
30299;SDS011;17110;52.602;12.998;2023-04-09T12:20:02;34.85;;;29.15;;
30299;SDS011;17110;52.602;12.998;2023-04-09T12:22:31;35.20;;;28.73;;
30299;SDS011;17110;52.602;12.998;2023-04-09T12:24:57;34.90;;;28.02;;
30299;SDS011;17110;52.602;12.998;2023-04-09T12:27:23;34.72;;;27.27;;
30299;SDS011;17110;52.602;12.998;2023-04-09T12:29:49;34.38;;;28.00;;
30299;SDS011;17110;52.602;12.998;2023-04-09T12:32:15;33.70;;;27.05;;
30299;SDS011;17110;52.602;12.998;2023-04-09T12:34:41;31.83;;;26.67;;
30299;SDS011;17110;52.602;12.998;2023-04-09T12:37:07;34.25;;;27.75;;
30299;SDS011;17110;52.602;12.998;2023-04-09T12:39:33;35.95;;;28.58;;
30299;SDS011;17110;52.602;12.998;2023-04-09T12:42:00;34.67;;;28.48;;
30299;SDS011;17110;52.602;12.998;2023-04-09T12:44:26;35.30;;;28.02;;
30299;SDS011;17110;52.602;12.998;2023-04-09T12:46:52;33.43;;;27.37;;
30299;SDS011;17110;52.602;12.998;2023-04-09T12:49:19;30.47;;;25.97;;
30299;SDS011;17110;52.602;12.998;2023-04-09T12:51:45;30.08;;;24.98;;
30299;SDS011;17110;52.602;12.998;2023-04-09T12:54:11;29.52;;;25.42;;
30299;SDS011;17110;52.602;12.998;2023-04-09T12:56:37;28.85;;;24.00;;
30299;SDS011;17110;52.602;12.998;2023-04-09T12:59:04;26.70;;;22.25;;
30299;SDS011;17110;52.602;12.998;2023-04-09T13:01:30;28.10;;;23.47;;
30299;SDS011;17110;52.602;12.998;2023-04-09T13:03:56;28.45;;;23.67;;
30299;SDS011;17110;52.602;12.998;2023-04-09T13:06:22;25.48;;;22.00;;
30299;SDS011;17110;52.602;12.998;2023-04-09T13:08:48;27.83;;;22.98;;
30299;SDS011;17110;52.602;12.998;2023-04-09T13:11:14;26.42;;;22.95;;
30299;SDS011;17110;52.602;12.998;2023-04-09T13:13:40;27.67;;;22.85;;
30299;SDS011;17110;52.602;12.998;2023-04-09T13:16:07;27.33;;;22.40;;
30299;SDS011;17110;52.602;12.998;2023-04-09T13:18:33;27.13;;;23.40;;
30299;SDS011;17110;52.602;12.998;2023-04-09T13:20:59;27.13;;;22.73;;
30299;SDS011;17110;52.602;12.998;2023-04-09T13:23:25;25.80;;;21.45;;
30299;SDS011;17110;52.602;12.998;2023-04-09T13:25:51;26.45;;;21.27;;
30299;SDS011;17110;52.602;12.998;2023-04-09T13:28:17;26.27;;;22.02;;
30299;SDS011;17110;52.602;12.998;2023-04-09T13:30:43;28.98;;;22.83;;
30299;SDS011;17110;52.602;12.998;2023-04-09T13:33:09;24.48;;;20.35;;
30299;SDS011;17110;52.602;12.998;2023-04-09T13:35:35;26.00;;;20.87;;
30299;SDS011;17110;52.602;12.998;2023-04-09T13:38:01;26.35;;;21.52;;
30299;SDS011;17110;52.602;12.998;2023-04-09T13:40:27;25.10;;;21.48;;
30299;SDS011;17110;52.602;12.998;2023-04-09T13:42:53;25.98;;;21.40;;
30299;SDS011;17110;52.602;12.998;2023-04-09T13:45:20;26.98;;;21.10;;
30299;SDS011;17110;52.602;12.998;2023-04-09T13:47:47;25.55;;;20.92;;
30299;SDS011;17110;52.602;12.998;2023-04-09T13:50:13;26.02;;;20.67;;
30299;SDS011;17110;52.602;12.998;2023-04-09T13:52:40;24.45;;;20.95;;
30299;SDS011;17110;52.602;12.998;2023-04-09T13:55:06;24.30;;;20.05;;
30299;SDS011;17110;52.602;12.998;2023-04-09T13:57:32;22.90;;;18.33;;
30299;SDS011;17110;52.602;12.998;2023-04-09T13:59:58;21.50;;;18.40;;
30299;SDS011;17110;52.602;12.998;2023-04-09T14:02:28;22.38;;;18.05;;
30299;SDS011;17110;52.602;12.998;2023-04-09T14:04:54;21.63;;;17.90;;
30299;SDS011;17110;52.602;12.998;2023-04-09T14:07:21;24.73;;;19.95;;
30299;SDS011;17110;52.602;12.998;2023-04-09T14:09:48;25.20;;;20.13;;
30299;SDS011;17110;52.602;12.998;2023-04-09T14:12:15;24.45;;;20.17;;
30299;SDS011;17110;52.602;12.998;2023-04-09T14:14:41;24.25;;;19.95;;
30299;SDS011;17110;52.602;12.998;2023-04-09T14:17:07;26.08;;;20.40;;
30299;SDS011;17110;52.602;12.998;2023-04-09T14:19:33;26.27;;;22.00;;
30299;SDS011;17110;52.602;12.998;2023-04-09T14:21:59;26.25;;;21.23;;
30299;SDS011;17110;52.602;12.998;2023-04-09T14:24:25;24.63;;;20.50;;
30299;SDS011;17110;52.602;12.998;2023-04-09T14:26:51;25.98;;;20.75;;
30299;SDS011;17110;52.602;12.998;2023-04-09T14:29:17;23.27;;;19.88;;
30299;SDS011;17110;52.602;12.998;2023-04-09T14:31:44;25.00;;;19.97;;
30299;SDS011;17110;52.602;12.998;2023-04-09T14:34:11;25.53;;;20.70;;